Observations for FAIRFORD RAF, United Kingdom (EGVA)

EGVA 140811Z AUTO 00000KT 9999 BKN042 18/14 A3000 RMK AO2 SLP161 $
EGVA 140756Z AUTO 24003KT 9999 CLR 17/14 A3000 RMK AO2 SLP161 T01730142 $   
EGVA 140741Z AUTO 23003KT 9999 SCT043 16/14 A3000 RMK AO2 SLP161 $
EGVA 140656Z AUTO 24006KT 9999 BKN042 OVC180 16/14 A2999 RMK AO2 SLP157 T01550139 $ 
EGVA 140636Z AUTO 24003KT 9999 SCT042 BKN180 15/13 A2999 RMK AO2 SLP157 $
EGVA 140651Z AUTO 24005KT 9999 BKN042 OVC180 15/14 A2999 RMK AO2 SLP157 $
EGVA 140556Z AUTO 21004KT 9999 OVC037 15/13 A2998 RMK AO2 SLP154 T01450130 10149 20120 53010 $  
EGVA 140456Z AUTO 22003KT 9999 OVC040 14/12 A2996 RMK AO2 SLP148 T01390124 $
EGVA 140356Z AUTO 00000KT 9999 OVC044 14/12 A2995 RMK AO2 SLP143 T01370123 $
EGVA 140256Z AUTO 24005KT 9999 OVC047 13/12 A2995 RMK AO2 SLP144 T01280115 52010 $  
EGVA 140236Z AUTO 00000KT 9999 BKN047 BKN240 12/11 A2994 RMK AO2 SLP140 $
EGVA 140156Z AUTO 00000KT 9999 SCT230 13/11 A2994 RMK AO2 SLP140 T01260110 $
EGVA 140056Z AUTO 00000KT 9999 CLR 14/11 A2993 RMK AO2 SLP137 T01390114 $   
EGVA 132356Z AUTO 30006KT 9999 CLR 15/12 A2992 RMK AO2 SLP133 60000 T01490120 10192 20148 402410148 52017 $ 
EGVA 132256Z AUTO 30006KT 9999 CLR 16/12 A2990 RMK AO2 SLP126 T01570124 $   
EGVA 132156Z AUTO 28006KT 9999 CLR 15/12 A2989 RMK AO2 SLP123 T01510120 $   
EGVA 132101Z AUTO 29008KT 9999 SCT036 17/15 A2987 RMK AO2 SLPNO $
EGVA 132056Z AUTO 29007KT 9999 BKN036 17/15 A2987 RMK AO2 SLPNO 60000 T01650147 52020 $ 
EGVA 132026Z AUTO 28005KT 6000 BR BKN075 17/15 A2986 RMK AO2 SLP113 $
EGVA 132041Z AUTO 28006KT 9999 BKN037 OVC075 17/15 A2987 RMK AO2 SLPNO $
EGVA 132021Z AUTO 26004KT 3200 BR FEW033 OVC075 17/16 A2986 RMK AO2 VIS 3200V8000 SLP113 $
EGVA 131956Z AUTO 28004KT 9999 SCT050 OVC075 18/15 A2986 RMK AO2 SLP113 T01790153 $ 
EGVA 131941Z AUTO 28004KT 9999 BKN050 OVC070 19/16 A2985 RMK AO2 SLP110 $
EGVA 131856Z AUTO 31005KT 9999 BKN040 OVC060 19/16 A2983 RMK AO2 DZB01E11 SLP103 P0000 T01890157 $  
EGVA 131811Z AUTO 30007KT 9999 BKN060 BKN070 19/15 A2982 RMK AO2 DZB01E11 SLP100 $
EGVA 131801Z AUTO 31007KT 9999 -DZ FEW035 SCT050 BKN060 19/15 A2981 RMK AO2 DZB01 SLP096 $
EGVA 131851Z AUTO 31005KT 9999 BKN040 OVC060 19/16 A2983 RMK AO2 DZB01E11 SLP103 $
EGVA 131756Z AUTO 31007KT 9999 OVC055 19/15 A2981 RMK AO2 DZE1658 SLP096 P0000 60000 T01910152 10241 20187 52017 $  
EGVA 131656Z AUTO 29008KT 9999 -DZ FEW030 SCT037 BKN055 OVC070 19/16 A2980 RMK AO2 RAB16E28RAB37E47DZB47 SLP093 P0000 T01870161 $   
EGVA 131628Z AUTO 31011KT 9999 BKN041 BKN050 OVC065 19/16 A2979 RMK AO2 RAB16E28 SLP090 $
EGVA 131637Z AUTO 30011KT 9999 -RA SCT039 OVC055 19/16 A2979 RMK AO2 RAB16E28RAB37 SLP090 $
EGVA 131616Z AUTO 32013G19KT 9999 SCT037 BKN045 BKN055 OVC085 22/14 A2979 RMK AO2 PRESRR SLP089 $
EGVA 131617Z AUTO 33013G19KT 9999 -RA BKN036 BKN045 BKN055 OVC085 22/15 A2979 RMK AO2 RAB16 SLP089 $
EGVA 131658Z AUTO 29008KT 9999 SCT037 BKN055 BKN070 19/16 A2980 RMK AO2 DZE58 SLP093 $
EGVA 131556Z AUTO 31009KT 9999 FEW040 BKN080 23/14 A2977 RMK AO2 SLP082 T02330135 $ 
EGVA 131456Z AUTO 29008KT 9999 OVC060 23/13 A2976 RMK AO2 SLP079 60000 T02280130 50002 $
EGVA 131411Z AUTO 32007KT 9999 SCT038 BKN060 23/13 A2976 RMK AO2 SLP079 $
EGVA 131401Z AUTO 30006KT 9999 BKN038 BKN060 23/13 A2975 RMK AO2 SLP075 $
EGVA 131356Z AUTO 30005KT 9999 SCT039 OVC060 23/13 A2976 RMK AO2 SLP079 T02290134 $ 
EGVA 131256Z AUTO 30010KT 9999 FEW035 OVC050 22/13 A2976 RMK AO2 DZB13E27 SLP079 P0000 T02180132 $  
EGVA 131227Z AUTO 30010KT 9999 SCT034 OVC049 21/13 A2976 RMK AO2 DZB13E27 SLP079 $
EGVA 131213Z AUTO 29008KT 9999 -DZ SCT035 OVC045 21/13 A2976 RMK AO2 DZB13 SLP079 $
EGVA 131252Z AUTO 29009KT 9999 FEW035 OVC050 22/13 A2976 RMK AO2 DZB13E27 SLP079 $
EGVA 131156Z AUTO 28009KT 9999 FEW035 OVC043 21/13 A2975 RMK AO2 SLP076 70003 T02080132 10217 20154 $   
EGVA 131136Z AUTO 25010KT 9999 FEW033 BKN045 22/13 A2975 RMK AO2 SLP075 $
EGVA 131116Z AUTO 29009KT 9999 SCT030 SCT039 BKN046 21/13 A2975 RMK AO2 SLP076 $
EGVA 131121Z AUTO 28008KT 9999 FEW031 SCT041 20/13 A2975 RMK AO2 SLP076 $
EGVA 131056Z AUTO 25010KT 9999 FEW026 SCT033 21/14 A2975 RMK AO2 SLP076 T02110135 $ 
EGVA 131026Z AUTO 28012KT 9999 BKN021 20/14 A2974 RMK AO2 BKN V SCT SLP072 $
EGVA 131031Z AUTO 29009KT 9999 SCT021 20/14 A2975 RMK AO2 SLP076 $
EGVA 131006Z AUTO 28006KT 9999 BKN017 20/15 A2974 RMK AO2 SLP072 $
EGVA 131021Z AUTO 28008KT 9999 SCT018 SCT023 20/14 A2975 RMK AO2 SLP076 $
EGVA 130956Z AUTO 29007KT 9999 M 19/15 A2974 RMK AO2 SLP073 T01890148 CHINO RWY09 $ 
EGVA 130806Z AUTO 31005KT 9999 BKN011 OVC039 17/15 A2973 RMK AO2 CIG 011V039 BKN V FEW SLP069 $
EGVA 130821Z AUTO 30003KT 9999 SCT011 OVC043 17/15 A2973 RMK AO2 SLP069 $
EGVA 130756Z AUTO 31004KT 9999 FEW013 OVC039 16/15 A2973 RMK AO2 SLP070 T01640153 $